createdAt,value
2019-04-04T00:00:51.230Z,93968.94
2019-04-04T00:03:40.026Z,93967.69
2019-04-04T00:06:28.723Z,93967.53
2019-04-04T00:09:17.437Z,93960.98
2019-04-04T00:12:06.125Z,93957.17
2019-04-04T00:14:55.913Z,93956.85
2019-04-04T00:17:44.038Z,93952.09
2019-04-04T00:20:32.596Z,93942.67
2019-04-04T00:23:20.996Z,93937.34
2019-04-04T00:26:10.915Z,93937.64
2019-04-04T00:29:01.440Z,93925.05
2019-04-04T00:31:50.867Z,93914.28
2019-04-04T00:34:39.505Z,93911.55
2019-04-04T00:37:28.000Z,93910.50
2019-04-04T00:40:16.829Z,93905.63
2019-04-04T00:43:05.302Z,93900.80
2019-04-04T00:45:53.670Z,93890.61
2019-04-04T00:48:41.719Z,93886.70
2019-04-04T00:51:30.562Z,93878.50
2019-04-04T00:54:18.717Z,93867.13
2019-04-04T00:57:07.212Z,93867.29
2019-04-04T00:59:55.718Z,93865.16
2019-04-04T01:02:44.444Z,93864.42
2019-04-04T01:05:32.932Z,93859.77
2019-04-04T01:08:21.370Z,93856.78
2019-04-04T01:11:10.628Z,93846.71
2019-04-04T01:13:59.051Z,93845.13
2019-04-04T01:16:48.151Z,93847.22
2019-04-04T01:19:36.815Z,93853.59
2019-04-04T01:22:25.680Z,93848.44
2019-04-04T01:25:14.027Z,93844.75
2019-04-04T01:28:02.150Z,93837.64
2019-04-04T01:30:50.493Z,93833.27
2019-04-04T01:33:39.162Z,93839.44
2019-04-04T01:36:27.467Z,93830.10
2019-04-04T01:39:16.486Z,93827.40
2019-04-04T01:42:06.971Z,93830.10
2019-04-04T01:44:55.151Z,93825.52
2019-04-04T01:47:43.912Z,93818.93
2019-04-04T01:50:32.345Z,93817.59
2019-04-04T01:53:20.940Z,93819.83
2019-04-04T01:56:09.402Z,93810.88
2019-04-04T01:58:57.941Z,93807.56
2019-04-04T02:01:47.424Z,93805.09
2019-04-04T02:04:35.714Z,93802.78
2019-04-04T02:07:24.896Z,93796.30
2019-04-04T02:10:14.036Z,93796.89
2019-04-04T02:13:02.904Z,93787.80
2019-04-04T02:15:51.909Z,93796.97
2019-04-04T02:18:40.774Z,93780.61
2019-04-04T02:21:29.643Z,93789.56
2019-04-04T02:24:18.346Z,93775.05
2019-04-04T02:27:06.919Z,93770.18
2019-04-04T02:29:56.539Z,93765.39
2019-04-04T02:32:45.475Z,93762.78
2019-04-04T02:35:34.223Z,93760.39
2019-04-04T02:38:27.183Z,93755.48
2019-04-04T02:41:15.589Z,93738.83
2019-04-04T02:44:04.822Z,93736.90
2019-04-04T02:46:52.652Z,93725.12
2019-04-04T02:49:41.565Z,93721.64
2019-04-04T02:52:30.069Z,93724.24
2019-04-04T02:55:18.733Z,93728.42
2019-04-04T02:58:07.932Z,93719.75
2019-04-04T03:00:59.222Z,93721.63
2019-04-04T03:03:45.964Z,93704.66
2019-04-04T03:06:34.826Z,93709.41
2019-04-04T03:09:23.602Z,93701.30
2019-04-04T03:12:12.220Z,93696.20
2019-04-04T03:15:00.258Z,93704.10
2019-04-04T03:17:49.059Z,93691.85
2019-04-04T03:20:37.418Z,93673.67
2019-04-04T03:23:26.240Z,93673.02
2019-04-04T03:26:19.027Z,93672.69
2019-04-04T03:29:05.836Z,93664.09
2019-04-04T03:31:54.541Z,93658.78
2019-04-04T03:34:48.644Z,93656.31
2019-04-04T03:37:33.527Z,93643.27
2019-04-04T03:40:25.654Z,93643.53
2019-04-04T03:43:15.837Z,93633.55
2019-04-04T03:46:02.317Z,93644.20
2019-04-04T03:48:51.198Z,93629.30
2019-04-04T03:51:40.219Z,93619.67
2019-04-04T03:54:28.568Z,93613.70
2019-04-04T03:57:16.883Z,93596.76
2019-04-04T04:00:07.559Z,93602.18
2019-04-04T04:02:56.613Z,93606.05
2019-04-04T04:05:45.405Z,93596.63
2019-04-04T04:08:33.722Z,93598.14
2019-04-04T04:11:22.299Z,93589.34
2019-04-04T04:14:11.466Z,93592.38
2019-04-04T04:17:00.436Z,93575.20
2019-04-04T04:19:49.355Z,93564.65
2019-04-04T04:22:37.915Z,93568.56
2019-04-04T04:25:26.581Z,93561.80
2019-04-04T04:28:15.075Z,93554.65
2019-04-04T04:31:03.525Z,93549.00
2019-04-04T04:33:52.074Z,93553.52
2019-04-04T04:36:41.171Z,93551.42
2019-04-04T04:39:36.079Z,93540.98
2019-04-04T04:42:21.442Z,93543.24
2019-04-04T04:45:12.114Z,93537.67
2019-04-04T04:48:00.567Z,93530.06
2019-04-04T04:50:49.443Z,93522.63
2019-04-04T04:53:37.921Z,93515.39
2019-04-04T04:56:26.840Z,93519.99
2019-04-04T04:59:15.242Z,93512.46
2019-04-04T05:02:03.851Z,93516.30
2019-04-04T05:04:52.134Z,93499.75
2019-04-04T05:07:40.584Z,93503.97
2019-04-04T05:10:29.226Z,93500.47
2019-04-04T05:13:18.025Z,93501.03
2019-04-04T05:16:08.844Z,93494.94
2019-04-04T05:18:57.625Z,93486.78
2019-04-04T05:21:46.720Z,93486.25
2019-04-04T05:24:35.419Z,93479.77
2019-04-04T05:27:24.101Z,93462.63
2019-04-04T05:30:15.938Z,93464.98
2019-04-04T05:33:02.868Z,93455.61
2019-04-04T05:35:51.626Z,93454.37
2019-04-04T05:38:42.650Z,93442.55
2019-04-04T05:41:30.346Z,93418.69
2019-04-04T05:44:19.591Z,93435.86
2019-04-04T05:47:07.914Z,93418.77
2019-04-04T05:49:56.218Z,93408.01
2019-04-04T05:52:44.981Z,93411.72
2019-04-04T05:55:33.751Z,93413.34
2019-04-04T05:58:22.799Z,93401.09
2019-04-04T06:01:13.114Z,93398.00
2019-04-04T06:04:03.907Z,93398.98
2019-04-04T06:06:52.093Z,93383.36
2019-04-04T06:09:41.966Z,93376.44
2019-04-04T06:12:31.287Z,93378.95
2019-04-04T06:15:19.972Z,93374.16
2019-04-04T06:18:11.817Z,93370.32
2019-04-04T06:20:58.987Z,93368.95
2019-04-04T06:23:47.551Z,93352.35
2019-04-04T06:26:38.201Z,93349.85
2019-04-04T06:29:27.077Z,93337.55
2019-04-04T06:32:15.889Z,93324.50
2019-04-04T06:35:04.843Z,93325.45
2019-04-04T06:37:53.183Z,93317.42
2019-04-04T06:40:41.776Z,93324.66
2019-04-04T06:43:30.267Z,93307.72
2019-04-04T06:46:22.496Z,93296.80
2019-04-04T06:49:08.623Z,93297.91
2019-04-04T06:51:56.817Z,93290.64
2019-04-04T06:57:21.206Z,93276.59
2019-04-04T07:00:10.041Z,93279.45
2019-04-04T07:02:57.836Z,93284.44
2019-04-04T07:05:46.699Z,93281.08
2019-04-04T07:08:35.247Z,93287.16
2019-04-04T07:11:24.142Z,93283.48
2019-04-04T07:14:12.398Z,93286.52
2019-04-04T07:17:01.816Z,93289.06
2019-04-04T07:19:50.050Z,93290.30
2019-04-04T07:22:38.727Z,93292.36
2019-04-04T07:25:27.778Z,93292.03
2019-04-04T07:28:16.862Z,93291.47
2019-04-04T07:31:06.387Z,93290.73
2019-04-04T07:33:54.530Z,93291.02
2019-04-04T07:36:43.002Z,93292.74
2019-04-04T07:39:32.725Z,93292.16
2019-04-04T07:42:21.955Z,93295.80
2019-04-04T07:45:10.551Z,93292.90
2019-04-04T07:47:59.441Z,93297.96
2019-04-04T07:50:48.022Z,93298.61
2019-04-04T07:53:37.491Z,93302.13
2019-04-04T07:56:26.759Z,93300.04
2019-04-04T07:59:15.071Z,93285.55
2019-04-04T08:02:04.343Z,93285.06
2019-04-04T08:04:53.297Z,93288.30
2019-04-04T08:07:42.257Z,93293.07
2019-04-04T08:10:31.342Z,93298.40
2019-04-04T08:13:20.217Z,93299.73
2019-04-04T08:16:08.828Z,93294.20
2019-04-04T08:18:57.130Z,93291.84
2019-04-04T08:21:46.104Z,93308.89
2019-04-04T08:24:34.771Z,93294.18
2019-04-04T08:27:23.867Z,93293.52
2019-04-04T08:30:12.577Z,93297.27
2019-04-04T08:33:01.083Z,93294.63
2019-04-04T08:35:50.048Z,93298.95
2019-04-04T08:38:38.602Z,93301.47
2019-04-04T08:41:27.473Z,93306.59
2019-04-04T08:44:16.618Z,93318.11
2019-04-04T08:47:05.521Z,93324.44
2019-04-04T08:49:54.459Z,93339.25
2019-04-04T08:52:43.055Z,93344.08
2019-04-04T08:55:35.045Z,93352.45
2019-04-04T08:58:23.389Z,93360.61
2019-04-04T09:01:12.091Z,93367.84
2019-04-04T09:04:01.114Z,93376.30
2019-04-04T09:06:49.956Z,93392.98
2019-04-04T09:09:38.870Z,93404.06
2019-04-04T09:12:27.682Z,93416.80
2019-04-04T09:15:16.564Z,93421.98
2019-04-04T09:18:05.278Z,93425.55
2019-04-04T09:20:53.989Z,93433.34
2019-04-04T09:23:42.767Z,93430.34
2019-04-04T09:26:31.487Z,93431.53
2019-04-04T09:29:20.537Z,93431.70
2019-04-04T09:32:09.586Z,93424.14
2019-04-04T09:34:58.745Z,93425.67
2019-04-04T09:37:48.027Z,93429.95
2019-04-04T09:40:36.981Z,93437.32
2019-04-04T09:43:26.177Z,93443.12
2019-04-04T09:46:15.287Z,93448.33
2019-04-04T09:49:03.829Z,93459.27
2019-04-04T09:51:52.177Z,93444.25
2019-04-04T09:54:41.147Z,93446.99
2019-04-04T09:57:29.548Z,93446.60
2019-04-04T10:00:21.103Z,93448.09
2019-04-04T10:03:09.502Z,93435.92
2019-04-04T10:05:58.667Z,93445.63
2019-04-04T10:08:47.493Z,93452.92
2019-04-04T10:11:36.233Z,93452.58
2019-04-04T10:14:25.029Z,93464.14
2019-04-04T10:17:13.854Z,93463.52
2019-04-04T10:20:02.435Z,93462.06
2019-04-04T10:22:51.347Z,93471.27
2019-04-04T10:25:40.331Z,93464.52
2019-04-04T10:28:28.431Z,93459.56
2019-04-04T10:31:17.251Z,93455.90
2019-04-04T10:34:05.966Z,93468.70
2019-04-04T10:36:54.370Z,93475.88
2019-04-04T10:39:43.105Z,93470.34
2019-04-04T10:42:31.511Z,93461.69
2019-04-04T10:45:20.365Z,93470.08
2019-04-04T10:48:09.396Z,93482.11
2019-04-04T10:50:58.109Z,93486.44
2019-04-04T10:53:47.280Z,93484.87
2019-04-04T10:56:36.324Z,93489.19
2019-04-04T10:59:24.709Z,93497.17
2019-04-04T11:02:13.316Z,93489.67
2019-04-04T11:05:01.857Z,93474.50
2019-04-04T11:07:51.124Z,93478.80
2019-04-04T11:10:39.754Z,93470.22
2019-04-04T11:13:33.827Z,93478.80
2019-04-04T11:16:29.589Z,93460.13
2019-04-04T11:19:09.748Z,93465.06
2019-04-04T11:21:58.760Z,93469.12
2019-04-04T11:24:47.327Z,93463.68
2019-04-04T11:27:36.122Z,93451.16
2019-04-04T11:30:24.196Z,93439.44
2019-04-04T11:33:12.677Z,93456.59
2019-04-04T11:36:01.658Z,93446.42
2019-04-04T11:38:50.719Z,93455.66
2019-04-04T11:41:39.260Z,93454.33
2019-04-04T11:44:28.594Z,93444.58
2019-04-04T11:47:17.628Z,93448.84
2019-04-04T11:50:07.053Z,93449.04
2019-04-04T11:52:55.851Z,93458.91
2019-04-04T11:55:44.701Z,93477.06
2019-04-04T11:58:33.590Z,93468.67
2019-04-04T12:01:23.693Z,93460.50
2019-04-04T12:04:12.265Z,93463.67
2019-04-04T12:07:01.573Z,93454.23
2019-04-04T12:09:50.299Z,93443.59
2019-04-04T12:12:39.363Z,93436.07
2019-04-04T12:15:28.571Z,93428.36
2019-04-04T12:18:16.864Z,93428.64
2019-04-04T12:21:05.738Z,93438.42
2019-04-04T12:23:54.943Z,93445.57
2019-04-04T12:26:43.581Z,93447.61
2019-04-04T12:29:31.963Z,93446.79
2019-04-04T12:32:20.555Z,93450.22
2019-04-04T12:35:12.528Z,93442.23
2019-04-04T12:38:00.980Z,93448.23
2019-04-04T12:40:49.557Z,93464.55
2019-04-04T12:43:38.346Z,93461.53
2019-04-04T12:46:27.054Z,93456.33
2019-04-04T12:49:16.002Z,93455.59
2019-04-04T12:52:05.110Z,93452.83
2019-04-04T12:54:53.640Z,93464.29
2019-04-04T12:57:42.603Z,93468.89
2019-04-04T13:00:31.568Z,93472.08
2019-04-04T13:03:22.274Z,93474.55
2019-04-04T13:06:09.633Z,93489.73
2019-04-04T13:08:58.138Z,93481.67
2019-04-04T13:11:47.075Z,93483.98
2019-04-04T13:14:35.924Z,93488.81
2019-04-04T13:17:24.713Z,93498.19
2019-04-04T13:20:13.638Z,93512.00
2019-04-04T13:23:02.573Z,93525.56
2019-04-04T13:25:51.279Z,93538.26
2019-04-04T13:28:40.524Z,93541.33
2019-04-04T13:31:29.110Z,93561.09
2019-04-04T13:34:18.136Z,93577.47
2019-04-04T13:37:06.889Z,93589.48
2019-04-04T13:39:55.329Z,93578.64
2019-04-04T13:42:44.024Z,93577.70
2019-04-04T13:45:32.634Z,93572.41
2019-04-04T13:48:21.345Z,93592.48
2019-04-04T13:51:10.144Z,93604.90
2019-04-04T13:53:58.823Z,93622.03
2019-04-04T13:56:47.651Z,93609.33
2019-04-04T13:59:36.760Z,93619.98
2019-04-04T14:02:24.928Z,93623.23
2019-04-04T14:05:14.678Z,93632.97
2019-04-04T14:08:03.638Z,93638.96
2019-04-04T14:10:57.944Z,93652.73
2019-04-04T14:13:42.517Z,93655.99
2019-04-04T14:16:31.006Z,93685.94
2019-04-04T14:19:19.670Z,93670.73
2019-04-04T14:22:08.999Z,93676.99
2019-04-04T14:24:57.904Z,93680.05
2019-04-04T14:27:46.775Z,93672.55
2019-04-04T14:30:35.318Z,93679.15
2019-04-04T14:33:23.947Z,93699.92
2019-04-04T14:36:12.284Z,93686.76
2019-04-04T14:39:01.021Z,93693.55
2019-04-04T14:41:49.555Z,93703.15
2019-04-04T14:44:38.062Z,93708.03
2019-04-04T14:47:26.282Z,93720.20
2019-04-04T14:50:15.413Z,93720.14
2019-04-04T14:53:03.676Z,93713.77
2019-04-04T14:55:51.745Z,93720.82
2019-04-04T14:58:40.607Z,93728.48
2019-04-04T15:01:29.542Z,93725.81
2019-04-04T15:04:18.710Z,93715.24
2019-04-04T15:07:08.614Z,93710.11
2019-04-04T15:09:57.793Z,93716.14
2019-04-04T15:12:46.549Z,93745.42
2019-04-04T15:15:34.796Z,93739.41
2019-04-04T15:18:23.214Z,93736.15
2019-04-04T15:21:11.493Z,93740.52
2019-04-04T15:24:00.604Z,93743.06
2019-04-04T15:26:49.662Z,93747.10
2019-04-04T15:29:38.633Z,93733.00
2019-04-04T15:32:27.665Z,93749.80
2019-04-04T15:35:16.499Z,93755.08
2019-04-04T15:38:05.137Z,93745.03
2019-04-04T15:40:53.339Z,93749.50
2019-04-04T15:43:42.850Z,93745.08
2019-04-04T15:46:32.280Z,93752.73
2019-04-04T15:49:23.072Z,93751.44
2019-04-04T15:52:11.901Z,93764.80
2019-04-04T15:55:00.490Z,93764.27
2019-04-04T15:57:49.463Z,93775.50
2019-04-04T16:00:40.491Z,93788.33
2019-04-04T16:03:29.942Z,93798.50
2019-04-04T16:06:19.331Z,93794.22
2019-04-04T16:09:08.412Z,93799.78
2019-04-04T16:11:57.354Z,93810.14
2019-04-04T16:14:48.912Z,93801.12
2019-04-04T16:17:37.726Z,93807.17
2019-04-04T16:20:26.631Z,93815.20
2019-04-04T16:23:15.460Z,93821.88
2019-04-04T16:26:04.541Z,93831.16
2019-04-04T16:28:54.516Z,93825.50
2019-04-04T16:31:43.157Z,93845.13
2019-04-04T16:34:31.872Z,93861.80
2019-04-04T16:37:20.421Z,93871.56
2019-04-04T16:40:10.623Z,93873.41
2019-04-04T16:42:59.032Z,93878.69
2019-04-04T16:45:47.344Z,93899.61
2019-04-04T16:48:35.879Z,93906.99
2019-04-04T16:51:24.552Z,93897.02
2019-04-04T16:54:13.132Z,93907.41
2019-04-04T16:57:01.618Z,93904.58
2019-04-04T16:59:50.716Z,93924.24
2019-04-04T17:02:39.351Z,93925.61
2019-04-04T17:05:28.342Z,93933.36
2019-04-04T17:08:17.807Z,93936.03
2019-04-04T17:11:06.398Z,93930.70
2019-04-04T17:13:54.513Z,93929.42
2019-04-04T17:16:43.381Z,93945.16
2019-04-04T17:19:32.353Z,93951.17
2019-04-04T17:22:20.620Z,93944.53
2019-04-04T17:25:09.809Z,93952.06
2019-04-04T17:27:59.463Z,93959.95
2019-04-04T17:30:47.832Z,93963.09
2019-04-04T17:33:36.938Z,93964.78
2019-04-04T17:36:26.019Z,93959.77
2019-04-04T17:39:15.058Z,93952.96
2019-04-04T17:42:03.945Z,93956.30
2019-04-04T17:44:52.657Z,93954.09
2019-04-04T17:47:41.970Z,93951.00
2019-04-04T17:50:31.305Z,93968.56
2019-04-04T17:53:20.277Z,93982.51
2019-04-04T17:56:09.820Z,93994.74
2019-04-04T17:58:58.977Z,94008.36
2019-04-04T18:01:50.370Z,94011.11
2019-04-04T18:04:48.336Z,94015.68
2019-04-04T18:07:29.662Z,94033.69
2019-04-04T18:10:20.713Z,94044.77
2019-04-04T18:13:09.001Z,94059.70
2019-04-04T18:15:57.962Z,94057.00
2019-04-04T18:18:46.726Z,94041.58
2019-04-04T18:21:35.284Z,94036.00
2019-04-04T18:24:24.225Z,94038.31
2019-04-04T18:27:13.114Z,94052.08
2019-04-04T18:30:01.489Z,94050.05
2019-04-04T18:32:50.085Z,94057.83
2019-04-04T18:35:44.526Z,94067.56
2019-04-04T18:38:29.978Z,94085.58
2019-04-04T18:41:18.598Z,94094.79
2019-04-04T18:44:07.885Z,94101.45
2019-04-04T18:46:56.497Z,94105.15
2019-04-04T18:49:45.448Z,94117.09
2019-04-04T18:52:34.491Z,94120.94
2019-04-04T18:55:23.554Z,94114.77
2019-04-04T18:58:12.463Z,94119.47
2019-04-04T19:01:01.529Z,94126.91
2019-04-04T19:03:49.892Z,94132.80
2019-04-04T19:06:38.748Z,94133.97
2019-04-04T19:09:27.916Z,94137.47
2019-04-04T19:12:16.893Z,94142.92
2019-04-04T19:15:08.011Z,94136.84
2019-04-04T19:17:57.173Z,94142.36
2019-04-04T19:20:46.376Z,94158.88
2019-04-04T19:23:34.711Z,94163.39
2019-04-04T19:26:24.001Z,94163.21
2019-04-04T19:29:12.587Z,94164.03
2019-04-04T19:32:01.735Z,94171.38
2019-04-04T19:34:50.682Z,94173.05
2019-04-04T19:37:39.579Z,94165.44
2019-04-04T19:40:28.657Z,94169.41
2019-04-04T19:43:18.470Z,94165.88
2019-04-04T19:46:06.819Z,94166.86
2019-04-04T19:48:57.068Z,94168.98
2019-04-04T19:51:46.231Z,94172.25
2019-04-04T19:54:35.073Z,94177.15
2019-04-04T19:57:23.895Z,94173.36
2019-04-04T20:00:12.881Z,94176.34
2019-04-04T20:03:02.134Z,94176.34
2019-04-04T20:05:51.158Z,94182.72
2019-04-04T20:08:39.976Z,94189.28
2019-04-04T20:11:29.015Z,94188.05
2019-04-04T20:14:19.042Z,94197.03
2019-04-04T20:17:07.970Z,94200.72
2019-04-04T20:19:57.306Z,94197.27
2019-04-04T20:22:45.950Z,94199.44
2019-04-04T20:25:35.120Z,94218.08
2019-04-04T20:28:24.036Z,94208.91
2019-04-04T20:31:12.581Z,94215.50
2019-04-04T20:34:05.697Z,94214.63
2019-04-04T20:36:52.426Z,94218.70
2019-04-04T20:39:41.071Z,94218.52
2019-04-04T20:42:30.085Z,94218.27
2019-04-04T20:45:18.891Z,94229.75
2019-04-04T20:48:07.976Z,94226.77
2019-04-04T20:50:57.139Z,94218.67
2019-04-04T20:53:47.337Z,94215.20
2019-04-04T20:56:36.096Z,94223.95
2019-04-04T20:59:27.838Z,94233.00
2019-04-04T21:02:15.230Z,94234.95
2019-04-04T21:05:05.071Z,94236.88
2019-04-04T21:07:54.042Z,94234.89
2019-04-04T21:10:42.783Z,94236.84
2019-04-04T21:13:31.406Z,94245.64
2019-04-04T21:16:20.467Z,94252.19
2019-04-04T21:19:08.668Z,94243.70
2019-04-04T21:21:57.640Z,94250.48
2019-04-04T21:24:46.534Z,94261.08
2019-04-04T21:27:34.877Z,94258.58
2019-04-04T21:30:22.976Z,94255.48
2019-04-04T21:33:11.744Z,94251.91
2019-04-04T21:36:00.504Z,94254.22
2019-04-04T21:38:48.935Z,94261.86
2019-04-04T21:41:37.184Z,94269.13
2019-04-04T21:44:25.550Z,94275.09
2019-04-04T21:47:13.968Z,94271.48
2019-04-04T21:50:02.727Z,94274.98
2019-04-04T21:52:51.120Z,94286.13
2019-04-04T21:55:39.441Z,94289.44
2019-04-04T21:58:28.624Z,94290.16
2019-04-04T22:01:17.525Z,94280.22
2019-04-04T22:04:06.210Z,94287.73
2019-04-04T22:06:55.230Z,94283.05
2019-04-04T22:09:44.294Z,94289.17
2019-04-04T22:12:33.318Z,94286.21
2019-04-04T22:15:22.214Z,94290.16
2019-04-04T22:18:10.597Z,94291.84
2019-04-04T22:20:59.157Z,94293.83
2019-04-04T22:23:47.531Z,94288.17
2019-04-04T22:26:37.573Z,94272.82
2019-04-04T22:29:26.161Z,94269.25
2019-04-04T22:32:15.326Z,94278.22
2019-04-04T22:35:04.577Z,94277.95
2019-04-04T22:37:53.146Z,94274.47
2019-04-04T22:40:41.376Z,94270.50
2019-04-04T22:43:30.395Z,94267.34
2019-04-04T22:46:19.353Z,94272.48
2019-04-04T22:49:08.458Z,94271.69
2019-04-04T22:51:56.471Z,94273.15
2019-04-04T22:54:44.862Z,94275.63
2019-04-04T22:57:34.036Z,94272.31
2019-04-04T23:00:22.207Z,94264.88
2019-04-04T23:03:11.521Z,94273.44
2019-04-04T23:05:59.977Z,94278.69
2019-04-04T23:08:48.443Z,94264.16
2019-04-04T23:11:37.130Z,94267.38
2019-04-04T23:14:25.562Z,94269.17
2019-04-04T23:17:13.905Z,94266.97
2019-04-04T23:20:02.464Z,94263.34
2019-04-04T23:22:53.069Z,94270.89
2019-04-04T23:25:40.708Z,94255.14
2019-04-04T23:28:29.552Z,94254.57
2019-04-04T23:31:18.134Z,94259.09
2019-04-04T23:34:06.307Z,94262.40
2019-04-04T23:36:55.618Z,94256.69
2019-04-04T23:39:44.281Z,94252.95
2019-04-04T23:42:32.767Z,94261.19
2019-04-04T23:45:21.412Z,94268.06
2019-04-04T23:48:10.428Z,94267.16
2019-04-04T23:50:59.197Z,94264.42
2019-04-04T23:53:47.962Z,94259.44
2019-04-04T23:56:36.206Z,94270.17
2019-04-04T23:59:24.969Z,94262.27
